Sun Prairie, WI (53590)

5:04 PM CST on January 23, 2017 (GMT -0600)
Northside School | | Change Station

Elev 1007 ft 43.19 °N, 89.22 °W | Updated 2 seconds ago

Overcast
Overcast
36.7 °F
Feels Like 37 °F
N
0.0
Wind Variable Wind from WNW
Gusts 0.0 mph

Today
High -- | Low -- °F
--% Chance of Precip.
Yesterday
High -- | Low -- °F
Precip. -- in
Pressure 29.82 in
Visibility 9.0 miles
Clouds Mostly Cloudy 1600 ft
Mostly Cloudy 2300 ft
Overcast 4900 ft
Windchill 37 °F
Dew Point 35 °F
Humidity 93%
Rainfall 0.00 in
Snow Depth Not available.
7:20 AM 4:57 PM
Waning Crescent, 15% visible
METAR KMSN 232253Z 32004KT 9SM BKN016 BKN023 OVC049 03/02 A2979 RMK AO2 SLP097 T00280017
Pressure 29.82 in
Visibility 9.0 miles
Clouds Mostly Cloudy 1600 ft
Mostly Cloudy 2300 ft
Overcast 4900 ft
Windchill 37 °F
Dew Point 35 °F
Humidity 93%
Rainfall 0.00 in
Snow Depth Not available.
7:20 AM 4:57 PM
Waning Crescent, 15% visible
METAR KMSN 232253Z 32004KT 9SM BKN016 BKN023 OVC049 03/02 A2979 RMK AO2 SLP097 T00280017

Get Your Daily Forecast Email!

Thanks for signing up!

Be on the lookout for a verification email in your inbox.

You'll start receiving the daily forecast at 8 AM.

×

10-Day Weather Forecast

Almanac

Astronomy

Jan. 23, 2017 Rise Set
Actual Time
Civil Twilight
Nautical Twilight
Astronomical Twilight
Moon
Length of Visible Light
Length of Day
Tomorrow will be .
, % of the Moon is Illuminated

Today's Extremes

State Highs State Lows

Community

WunderPhotos

Upload Photos

1,962,540 photos uploaded!

WunderBlog® & News

Nearby

Air Quality

  Air Quality AQ Index Pollutant
Not available.

Snow Depth

Station Depth Elevation

Earthquake Activity

City Distance Mag. Time & Date
Minimum magnitude displayed is 2.5.

Coastal Water Temperatures

Place Temperature

Stations

Nearby Weather Stations

Station Location Temp. Windchill Dew Point Humidity Wind Precip. Elev Updated Type
                   

Watches & Warnings

There are currently no watches in effect.